Time;durP1;ratioP1;P1;durP2;ratioP2;P2;SDS_P1;SDS_P2;PMS_P1;PMS_P2;Temp;Humidity;BMP_temperature;BMP_pressure;BME280_temperature;BME280_humidity;BME280_pressure;Samples;Min_cycle;Max_cycle;Signal;HPM_P1;HPM_P2
2021/01/09 00:00:59;;;;;;;107.12;51.30;;;;;;;-0.27;86.51;100188.00;1755541;81;25785;-54
2021/01/09 00:03:26;;;;;;;106.95;54.33;;;;;;;-0.24;86.53;100193.34;1755479;81;26048;-58
2021/01/09 00:05:53;;;;;;;112.60;53.85;;;;;;;-0.23;86.66;100189.66;1755861;81;25876;-57
2021/01/09 00:08:20;;;;;;;104.92;52.40;;;;;;;-0.21;86.71;100184.89;1755868;81;26170;-57
2021/01/09 00:10:48;;;;;;;118.15;55.17;;;;;;;-0.20;86.72;100182.00;1755544;81;25720;-56
2021/01/09 00:13:15;;;;;;;107.20;51.73;;;;;;;-0.18;86.59;100183.63;1726047;81;25967;-49
2021/01/09 00:15:42;;;;;;;109.37;54.15;;;;;;;-0.18;86.58;100182.30;1755890;81;25714;-57
2021/01/09 00:18:09;;;;;;;124.67;56.13;;;;;;;-0.16;86.75;100186.31;1755965;81;25675;-58
2021/01/09 00:20:36;;;;;;;114.85;54.00;;;;;;;-0.15;86.72;100181.29;1756009;81;26165;-45
2021/01/09 00:23:03;;;;;;;112.25;55.05;;;;;;;-0.15;86.55;100186.61;1755898;81;25667;-57
2021/01/09 00:25:30;;;;;;;110.37;54.13;;;;;;;-0.15;86.36;100185.28;1755905;81;25728;-57
2021/01/09 00:27:57;;;;;;;107.97;55.03;;;;;;;-0.17;86.31;100180.73;1755920;81;25693;-56
2021/01/09 00:30:24;;;;;;;106.95;56.25;;;;;;;-0.17;86.24;100187.38;1755901;81;25633;-57
2021/01/09 00:32:51;;;;;;;110.75;53.28;;;;;;;-0.17;86.10;100186.55;1755988;81;25720;-56
2021/01/09 00:35:18;;;;;;;115.42;53.15;;;;;;;-0.19;86.04;100192.10;1755857;81;25695;-56
2021/01/09 00:37:44;;;;;;;108.35;52.25;;;;;;;-0.20;86.02;100186.52;1755852;81;25667;-57
2021/01/09 00:40:13;;;;;;;106.52;53.02;;;;;;;-0.24;85.94;100183.54;1755949;81;25651;-55
2021/01/09 00:42:41;;;;;;;98.80;50.45;;;;;;;-0.24;86.01;100188.03;1755995;81;25685;-56
2021/01/09 00:45:09;;;;;;;110.10;53.08;;;;;;;-0.24;86.08;100186.70;1755936;81;26935;-56
2021/01/09 00:47:37;;;;;;;112.30;53.48;;;;;;;-0.26;86.11;100182.15;1751666;81;26283;-56
2021/01/09 00:50:06;;;;;;;110.03;52.15;;;;;;;-0.29;86.01;100181.30;1747083;82;25754;-58
2021/01/09 00:52:32;;;;;;;117.35;54.35;;;;;;;-0.32;86.03;100184.42;1747081;81;25624;-51
2021/01/09 00:54:59;;;;;;;113.62;54.05;;;;;;;-0.33;86.10;100184.95;1731976;82;25663;-56
2021/01/09 00:57:26;;;;;;;109.78;50.90;;;;;;;-0.34;86.14;100183.86;1762247;81;26389;-55
2021/01/09 00:59:53;;;;;;;108.83;51.80;;;;;;;-0.35;86.09;100191.57;1743205;82;26240;-52
2021/01/09 01:02:20;;;;;;;108.32;50.45;;;;;;;-0.37;86.19;100185.16;1731901;82;25615;-48
2021/01/09 01:04:48;;;;;;;116.90;54.60;;;;;;;-0.36;86.12;100188.62;1762323;81;25666;-55
2021/01/09 01:07:15;;;;;;;114.20;54.83;;;;;;;-0.38;86.24;100191.52;1743339;82;25770;-56
2021/01/09 01:09:42;;;;;;;114.97;54.20;;;;;;;-0.39;86.35;100189.92;1731971;82;25782;-56
2021/01/09 01:12:09;;;;;;;109.10;53.85;;;;;;;-0.39;86.34;100192.05;1762224;81;25725;-50
2021/01/09 01:14:37;;;;;;;109.37;50.45;;;;;;;-0.41;86.36;100194.14;1743129;82;25630;-52
2021/01/09 01:17:04;;;;;;;111.15;53.17;;;;;;;-0.41;86.43;100192.81;1731851;82;25774;-56
2021/01/09 01:19:31;;;;;;;110.70;52.88;;;;;;;-0.42;86.44;100187.20;1762434;81;25281;-56
2021/01/09 01:21:58;;;;;;;109.50;52.90;;;;;;;-0.43;86.33;100188.23;1743016;82;26402;-56
2021/01/09 01:24:24;;;;;;;106.10;51.53;;;;;;;-0.45;86.30;100196.17;1731786;82;25772;-58
2021/01/09 01:26:51;;;;;;;103.78;49.67;;;;;;;-0.49;86.27;100195.84;1762313;81;26355;-57
2021/01/09 01:29:17;;;;;;;104.07;50.50;;;;;;;-0.51;86.35;100195.78;1743162;82;25607;-57
2021/01/09 01:31:44;;;;;;;106.95;52.05;;;;;;;-0.50;86.45;100189.44;1731904;82;25608;-49
2021/01/09 01:34:11;;;;;;;106.90;50.83;;;;;;;-0.51;86.48;100193.13;1762124;81;26326;-58
2021/01/09 01:36:38;;;;;;;108.67;51.37;;;;;;;-0.50;86.50;100190.77;1742901;82;25746;-53
2021/01/09 01:39:05;;;;;;;103.75;50.03;;;;;;;-0.49;86.61;100189.73;1731865;82;25774;-57
2021/01/09 01:41:32;;;;;;;98.78;48.50;;;;;;;-0.49;86.52;100188.41;1733915;81;25750;-54
2021/01/09 01:43:59;;;;;;;106.65;51.85;;;;;;;-0.50;86.45;100187.58;1743308;82;25563;-56
2021/01/09 01:46:25;;;;;;;102.40;50.15;;;;;;;-0.51;86.43;100188.64;1731733;82;26161;-52
2021/01/09 01:48:52;;;;;;;107.83;50.35;;;;;;;-0.50;86.40;100188.91;1774520;80;26036;-58
2021/01/09 01:51:19;;;;;;;103.30;50.28;;;;;;;-0.51;86.29;100187.81;1746027;82;25746;-58
2021/01/09 01:53:46;;;;;;;103.62;50.08;;;;;;;-0.51;86.23;100185.16;1745965;81;25887;-55
2021/01/09 01:56:13;;;;;;;107.97;51.23;;;;;;;-0.52;86.29;100182.23;1746097;82;25784;-56
2021/01/09 01:58:40;;;;;;;103.97;50.63;;;;;;;-0.53;86.32;100185.39;1745998;81;25707;-52
2021/01/09 02:01:09;;;;;;;108.95;50.38;;;;;;;-0.56;86.32;100184.56;1745976;81;25616;-53
2021/01/09 02:03:36;;;;;;;101.35;51.98;;;;;;;-0.55;86.38;100183.50;1746036;82;33957;-57
2021/01/09 02:06:14;;;;;;;100.50;47.95;;;;;;;-0.56;86.48;100180.58;1776862;80;26374;-57
2021/01/09 02:09:04;;;;;;;103.05;51.45;;;;;;;-0.55;86.53;100182.17;1745997;82;25615;-56
2021/01/09 02:11:49;;;;;;;100.55;49.88;;;;;;;-0.60;86.50;100169.59;1746073;82;26929;-46
2021/01/09 02:14:38;;;;;;;97.10;47.13;;;;;;;-0.55;86.48;100177.39;1745632;82;25825;-56
2021/01/09 02:17:07;;;;;;;107.35;50.67;;;;;;;-0.54;86.55;100181.67;1746116;82;25598;-57
2021/01/09 02:19:45;;;;;;;99.60;51.27;;;;;;;-0.54;86.61;100185.66;1746224;81;25722;-55
2021/01/09 02:22:14;;;;;;;103.87;49.48;;;;;;;-0.54;86.69;100178.48;1745869;82;25703;-46
2021/01/09 02:24:45;;;;;;;;;;;;;;;-0.52;86.78;100180.91;1748482;82;25733;-51
2021/01/09 02:27:13;;;;;;;101.00;46.58;;;;;;;-0.51;86.84;100175.86;1755477;81;25647;-44
2021/01/09 02:29:54;;;;;;;103.70;50.03;;;;;;;-0.50;86.86;100178.27;1755624;81;25766;-52
2021/01/09 02:32:29;;;;;;;105.92;48.95;;;;;;;-0.47;86.91;100184.45;1755536;81;26238;-53
2021/01/09 02:34:59;;;;;;;103.17;50.43;;;;;;;-0.46;86.85;100182.09;1724691;81;25745;-51
2021/01/09 02:37:26;;;;;;;;;;;;;;;-0.44;86.85;100181.32;1758421;81;25870;-55
2021/01/09 02:39:54;;;;;;;103.30;49.53;;;;;;;-0.43;86.91;100181.59;1755688;81;25655;-58
2021/01/09 02:42:22;;;;;;;112.90;51.98;;;;;;;-0.44;86.83;100174.68;1755990;81;25660;-58
2021/01/09 02:44:52;;;;;;;105.30;51.92;;;;;;;-0.43;86.79;100179.46;1755622;81;25777;-47
2021/01/09 02:47:19;;;;;;;106.70;51.42;;;;;;;-0.44;86.69;100179.99;1725012;81;25723;-56
2021/01/09 02:49:46;;;;;;;113.32;52.38;;;;;;;-0.49;86.63;100176.45;1731948;82;25952;-58
2021/01/09 02:52:13;;;;;;;109.72;51.33;;;;;;;-0.49;86.73;100182.56;1762072;81;25615;-52
2021/01/09 02:54:39;;;;;;;105.07;49.95;;;;;;;-0.49;86.77;100177.77;1743192;82;25655;-58
2021/01/09 02:57:06;;;;;;;106.43;52.20;;;;;;;-0.48;86.78;100186.02;1731846;82;25667;-56
2021/01/09 02:59:32;;;;;;;109.72;52.45;;;;;;;-0.47;86.87;100183.13;1762068;81;25594;-53
2021/01/09 03:01:59;;;;;;;98.52;49.03;;;;;;;-0.47;86.89;100184.45;1743107;82;25780;-57
2021/01/09 03:04:26;;;;;;;110.95;53.73;;;;;;;-0.46;86.93;100187.91;1731809;82;25679;-56
2021/01/09 03:06:52;;;;;;;105.00;52.65;;;;;;;-0.47;86.92;100187.11;1762038;81;25714;-47
2021/01/09 03:09:19;;;;;;;102.65;49.08;;;;;;;-0.45;86.97;100189.53;1743167;82;25684;-58
2021/01/09 03:11:46;;;;;;;110.88;52.27;;;;;;;-0.45;86.97;100189.00;1731907;82;25703;-51
2021/01/09 03:14:13;;;;;;;106.32;50.58;;;;;;;-0.44;86.97;100183.98;1762081;81;26277;-57
2021/01/09 03:16:40;;;;;;;103.58;52.23;;;;;;;-0.45;86.96;100179.70;1743130;82;25775;-56
2021/01/09 03:19:06;;;;;;;108.47;51.40;;;;;;;-0.45;86.90;100181.55;1731752;82;25637;-45
2021/01/09 03:21:33;;;;;;;105.12;52.85;;;;;;;-0.46;86.99;100182.09;1762156;81;25611;-57
2021/01/09 03:24:00;;;;;;;105.72;52.17;;;;;;;-0.47;86.95;100181.80;1743146;82;25669;-44
2021/01/09 03:26:27;;;;;;;110.90;53.60;;;;;;;-0.46;87.05;100181.27;1731758;82;25712;-55
2021/01/09 03:28:53;;;;;;;116.50;55.90;;;;;;;-0.50;87.01;100174.83;1761907;81;26017;-57
2021/01/09 03:31:20;;;;;;;116.93;54.80;;;;;;;-0.49;87.09;100173.79;1743029;82;26371;-51
2021/01/09 03:33:47;;;;;;;122.05;54.80;;;;;;;-0.50;87.09;100170.30;1731468;82;25752;-53
2021/01/09 03:36:13;;;;;;;115.00;54.55;;;;;;;-0.51;87.10;100171.37;1762074;81;25591;-52
2021/01/09 03:38:40;;;;;;;120.08;56.42;;;;;;;-0.50;87.19;100169.50;1743180;82;25779;-56
2021/01/09 03:41:07;;;;;;;116.88;54.13;;;;;;;-0.50;87.20;100167.65;1731681;82;25689;-56
2021/01/09 03:43:34;;;;;;;119.40;55.92;;;;;;;-0.50;87.18;100170.84;1734094;81;25603;-55
2021/01/09 03:46:00;;;;;;;120.82;55.73;;;;;;;-0.50;87.24;100169.50;1743072;82;25733;-56
2021/01/09 03:48:27;;;;;;;115.03;56.02;;;;;;;-0.51;87.26;100172.70;1738429;81;25603;-57
2021/01/09 03:50:54;;;;;;;114.35;54.25;;;;;;;-0.50;87.33;100168.18;1769690;81;25702;-57
2021/01/09 03:53:21;;;;;;;119.35;55.90;;;;;;;-0.49;87.35;100166.61;1779865;80;25660;-54
2021/01/09 03:55:48;;;;;;;115.77;53.70;;;;;;;-0.50;87.30;100168.98;1749271;81;25796;-56
2021/01/09 03:58:15;;;;;;;116.47;54.77;;;;;;;-0.49;87.35;100172.46;1748931;81;25854;-56
2021/01/09 04:00:41;;;;;;;115.90;55.60;;;;;;;-0.47;87.42;100170.36;1749231;81;25703;-53
2021/01/09 04:03:08;;;;;;;123.07;56.42;;;;;;;-0.47;87.45;100173.02;1749287;81;26238;-55
2021/01/09 04:05:35;;;;;;;124.20;56.70;;;;;;;-0.46;87.40;100173.29;1749161;81;25741;-54
2021/01/09 04:08:02;;;;;;;122.65;53.87;;;;;;;-0.45;87.44;100173.59;1749078;81;25909;-50
2021/01/09 04:10:29;;;;;;;124.50;57.73;;;;;;;-0.45;87.46;100173.05;1749138;81;26072;-57
2021/01/09 04:12:56;;;;;;;124.40;55.83;;;;;;;-0.43;87.48;100175.48;1749152;81;25727;-55
2021/01/09 04:15:22;;;;;;;116.90;54.08;;;;;;;-0.42;87.53;100177.89;1749116;81;26312;-57
2021/01/09 04:17:49;;;;;;;118.95;54.50;;;;;;;-0.40;87.53;100182.98;1749260;81;26170;-57
2021/01/09 04:20:16;;;;;;;126.60;56.13;;;;;;;-0.38;87.54;100180.88;1749123;81;25699;-56
2021/01/09 04:22:43;;;;;;;122.42;55.88;;;;;;;-0.36;87.48;100180.64;1749132;81;25974;-57
2021/01/09 04:25:12;;;;;;;116.97;54.60;;;;;;;-0.35;87.44;100187.05;1749199;81;25731;-56
2021/01/09 04:27:38;;;;;;;119.05;56.28;;;;;;;-0.33;87.41;100180.97;1749316;81;26013;-58
2021/01/09 04:30:07;;;;;;;112.95;54.27;;;;;;;-0.32;87.38;100186.58;1749055;81;25667;-56
2021/01/09 04:32:33;;;;;;;110.15;53.52;;;;;;;-0.30;87.43;100196.98;1749162;81;25702;-56
2021/01/09 04:35:02;;;;;;;118.40;55.20;;;;;;;-0.29;87.42;100199.40;1749006;81;26409;-57
2021/01/09 04:37:29;;;;;;;117.00;55.78;;;;;;;-0.29;87.39;100190.09;1749178;81;25854;-53
2021/01/09 04:39:56;;;;;;;117.57;54.95;;;;;;;-0.26;87.40;100191.45;1749263;81;26679;-56
2021/01/09 04:42:22;;;;;;;115.20;54.38;;;;;;;-0.24;87.40;100199.48;1749040;81;25710;-57
2021/01/09 04:44:49;;;;;;;120.62;56.95;;;;;;;-0.24;87.33;100187.53;1749113;81;25583;-57
2021/01/09 04:47:18;;;;;;;118.40;54.10;;;;;;;-0.22;87.32;100183.30;1749008;81;26030;-56
2021/01/09 04:49:45;;;;;;;115.47;54.13;;;;;;;-0.20;87.36;100187.84;1746969;81;25723;-55
2021/01/09 04:52:12;;;;;;;113.72;54.18;;;;;;;-0.20;87.26;100197.16;1745928;82;26362;-57
2021/01/09 04:54:41;;;;;;;108.72;51.95;;;;;;;-0.22;87.16;100197.39;1745911;81;25831;-47
2021/01/09 04:57:08;;;;;;;120.37;56.50;;;;;;;-0.23;87.17;100200.28;1746097;81;25818;-54
2021/01/09 04:59:36;;;;;;;125.02;56.45;;;;;;;-0.24;87.13;100196.83;1745913;81;25951;-53
2021/01/09 05:02:05;;;;;;;114.40;54.30;;;;;;;-0.26;87.10;100202.88;1746102;82;25727;-56
2021/01/09 05:04:31;;;;;;;114.85;56.58;;;;;;;-0.28;87.12;100198.87;1745955;82;25769;-56
2021/01/09 05:06:58;;;;;;;113.60;54.50;;;;;;;-0.29;87.21;100202.56;1745826;82;25696;-55
2021/01/09 05:09:25;;;;;;;124.15;58.08;;;;;;;-0.31;87.17;100196.69;1745882;81;25688;-57
2021/01/09 05:11:55;;;;;;;110.80;53.05;;;;;;;-0.33;87.23;100206.22;1745916;82;25758;-57
2021/01/09 05:14:22;;;;;;;108.25;52.50;;;;;;;-0.33;87.33;100212.06;1716305;82;25667;-56
2021/01/09 05:16:49;;;;;;;113.05;54.63;;;;;;;-0.36;87.37;100210.67;1745963;82;26175;-52
2021/01/09 05:19:16;;;;;;;106.85;54.15;;;;;;;-0.37;87.37;100206.42;1745842;81;26116;-45
2021/01/09 05:21:44;;;;;;;112.30;54.23;;;;;;;-0.36;87.40;100210.67;1746060;82;25754;-49
2021/01/09 05:24:13;;;;;;;109.60;52.98;;;;;;;-0.34;87.47;100215.76;1716254;82;25678;-57
2021/01/09 05:26:41;;;;;;;114.70;53.23;;;;;;;-0.34;87.45;100221.08;1746153;81;25674;-45
2021/01/09 05:29:08;;;;;;;121.55;53.08;;;;;;;-0.34;87.41;100217.09;1746024;82;27122;-57
2021/01/09 05:31:36;;;;;;;108.30;53.17;;;;;;;-0.35;87.40;100221.61;1745795;81;25623;-57
2021/01/09 05:34:05;;;;;;;108.90;53.33;;;;;;;-0.37;87.43;100215.73;1745808;81;25592;-56
2021/01/09 05:36:33;;;;;;;113.68;54.70;;;;;;;-0.37;87.47;100219.72;1746024;81;25720;-57
2021/01/09 05:39:02;;;;;;;113.77;54.03;;;;;;;-0.35;87.55;100221.61;1745831;81;25683;-47
2021/01/09 05:41:29;;;;;;;118.25;53.65;;;;;;;-0.35;87.52;100220.27;1746009;82;25708;-53
2021/01/09 05:44:04;;;;;;;114.45;56.25;;;;;;;-0.34;87.54;100223.73;1745864;81;25962;-57
2021/01/09 05:46:34;;;;;;;109.65;52.85;;;;;;;-0.35;87.48;100225.59;1746014;81;25735;-56
2021/01/09 05:49:02;;;;;;;108.07;52.35;;;;;;;-0.36;87.51;100229.28;1745980;81;25671;-57
2021/01/09 05:51:33;;;;;;;108.22;52.10;;;;;;;-0.33;87.60;100239.98;1745858;81;25601;-57
2021/01/09 05:54:00;;;;;;;108.12;50.20;;;;;;;-0.33;87.63;100236.79;1745463;82;25729;-57
2021/01/09 05:56:28;;;;;;;101.97;52.13;;;;;;;-0.32;87.56;100238.91;1745807;81;25676;-56
2021/01/09 05:58:56;;;;;;;109.22;50.55;;;;;;;-0.34;87.51;100242.34;1745682;82;25255;-57
2021/01/09 06:01:31;;;;;;;111.45;50.38;;;;;;;-0.34;87.54;100245.83;1745942;81;25734;-57
2021/01/09 06:04:18;;;;;;;109.60;51.80;;;;;;;-0.38;87.56;100234.83;1746087;82;25760;-46
2021/01/09 06:06:49;;;;;;;108.63;51.23;;;;;;;-0.34;87.53;100247.16;1746028;82;27103;-56
2021/01/09 06:09:25;;;;;;;105.65;52.08;;;;;;;-0.34;87.56;100246.33;1745760;82;25686;-57
2021/01/09 06:11:56;;;;;;;103.97;48.63;;;;;;;-0.33;87.59;100244.77;1746028;82;25724;-55
2021/01/09 06:14:27;;;;;;;108.27;52.65;;;;;;;-0.33;87.56;100246.09;1746089;82;25756;-55
2021/01/09 06:16:56;;;;;;;104.00;50.48;;;;;;;-0.31;87.64;100249.84;1746043;81;25769;-54
2021/01/09 06:19:24;;;;;;;111.50;51.75;;;;;;;-0.31;87.65;100251.97;1746183;82;26453;-57
2021/01/09 06:21:53;;;;;;;111.37;52.00;;;;;;;-0.30;87.64;100253.59;1745924;82;26302;-55
2021/01/09 06:24:22;;;;;;;109.37;51.50;;;;;;;-0.30;87.56;100258.11;1776450;80;25968;-56
2021/01/09 06:26:49;;;;;;;108.15;49.58;;;;;;;-0.31;87.63;100252.50;1746050;82;25695;-56
2021/01/09 06:29:25;;;;;;;111.97;53.15;;;;;;;-0.29;87.63;100253.06;1746079;82;26263;-56
2021/01/09 06:31:58;;;;;;;105.72;49.23;;;;;;;-0.29;87.64;100253.89;1746046;82;25780;-55
2021/01/09 06:34:29;;;;;;;115.90;53.38;;;;;;;-0.28;87.66;100255.48;1746032;81;25615;-59
2021/01/09 06:37:00;;;;;;;104.95;50.95;;;;;;;-0.30;87.64;100257.58;1746052;81;25731;-56
2021/01/09 06:39:36;;;;;;;104.65;51.02;;;;;;;-0.30;87.66;100257.58;1745992;82;25783;-50
2021/01/09 06:42:09;;;;;;;107.97;51.20;;;;;;;-0.29;87.67;100263.70;1746042;82;26380;-49
2021/01/09 06:44:36;;;;;;;100.75;49.20;;;;;;;-0.30;87.71;100261.57;1746005;81;25715;-56
2021/01/09 06:47:02;;;;;;;110.03;50.90;;;;;;;-0.31;87.71;100259.95;1745911;82;25773;-51
2021/01/09 06:49:29;;;;;;;105.58;52.35;;;;;;;-0.31;87.71;100263.94;1748076;81;25652;-57
2021/01/09 06:52:03;;;;;;;108.20;51.13;;;;;;;-0.30;87.72;100266.09;1751467;81;26434;-57
2021/01/09 06:54:43;;;;;;;111.70;52.25;;;;;;;-0.28;87.79;100258.67;1751611;81;25672;-58
2021/01/09 06:57:19;;;;;;;103.90;50.92;;;;;;;-0.27;87.75;100264.30;1779005;80;25930;-56
2021/01/09 06:59:51;;;;;;;109.03;51.25;;;;;;;-0.26;87.77;100271.20;1751574;81;25834;-54
2021/01/09 07:02:27;;;;;;;115.15;51.88;;;;;;;-0.26;87.81;100275.19;1751658;81;25790;-57
2021/01/09 07:05:12;;;;;;;107.00;51.35;;;;;;;-0.27;87.71;100274.92;1751686;81;26296;-53
2021/01/09 07:07:52;;;;;;;110.90;50.65;;;;;;;-0.28;87.77;100274.09;1749095;81;26354;-56
2021/01/09 07:10:28;;;;;;;119.42;52.83;;;;;;;-0.29;87.75;100280.47;1751635;81;26278;-56
2021/01/09 07:13:07;;;;;;;101.40;50.55;;;;;;;-0.27;87.82;100278.91;1751558;81;25670;-57
2021/01/09 07:15:36;;;;;;;117.07;55.77;;;;;;;-0.26;87.91;100280.51;1751812;81;25655;-46
2021/01/09 07:18:06;;;;;;;;;;;;;;;-0.25;87.86;100281.60;1754201;81;25723;-58
2021/01/09 07:20:45;;;;;;;106.32;49.88;;;;;;;-0.25;87.84;100280.80;1769442;81;26301;-57
2021/01/09 07:23:17;;;;;;;115.35;54.00;;;;;;;-0.26;87.88;100284.49;1769445;81;25725;-65
2021/01/09 07:25:48;;;;;;;118.72;54.00;;;;;;;-0.26;87.82;100289.81;1769439;81;26356;-54
2021/01/09 07:28:19;;;;;;;114.50;54.08;;;;;;;-0.28;87.83;100286.06;1782507;80;25753;-56
2021/01/09 07:30:46;;;;;;;106.25;51.20;;;;;;;-0.27;87.85;100296.19;1751351;81;25876;-48
2021/01/09 07:33:14;;;;;;;115.22;53.50;;;;;;;-0.27;87.90;100296.98;1782473;80;25731;-58
2021/01/09 07:35:45;;;;;;;123.67;56.48;;;;;;;-0.27;87.91;100301.51;1751374;81;25833;-57
2021/01/09 07:38:13;;;;;;;124.82;57.13;;;;;;;-0.27;87.93;100299.65;1751722;81;25773;-57
2021/01/09 07:40:57;;;;;;;119.22;54.05;;;;;;;-0.25;87.98;100299.41;1751391;81;25693;-58
2021/01/09 07:46:32;;;;;;;111.47;53.93;;;;;;;-0.16;88.12;100300.64;1886340;76;34872;-55
2021/01/09 07:49:00;;;;;;;120.80;55.30;;;;;;;-0.21;88.08;100307.98;1856750;77;25821;-57
2021/01/09 07:51:50;;;;;;;127.50;55.25;;;;;;;-0.17;88.10;100307.52;1857472;77;25678;-57
2021/01/09 07:54:37;;;;;;;;;;;;;;;-0.15;88.10;100305.42;1860175;77;25438;-56
2021/01/09 07:57:22;;;;;;;118.67;52.90;;;;;;;-0.14;88.09;100309.70;1857341;77;25873;-57
2021/01/09 08:00:01;;;;;;;123.05;54.00;;;;;;;-0.12;88.19;100307.61;1857474;77;25570;-56
2021/01/09 08:02:35;;;;;;;125.40;56.15;;;;;;;-0.10;88.13;100305.02;1857040;77;25592;-57
2021/01/09 08:05:22;;;;;;;126.25;56.68;;;;;;;-0.09;88.05;100312.47;1856618;77;26275;-56
2021/01/09 08:07:56;;;;;;;120.40;55.38;;;;;;;-0.09;88.09;100308.47;1857104;77;25684;-52
2021/01/09 08:10:30;;;;;;;121.70;55.15;;;;;;;-0.06;88.15;100312.79;1857076;77;25699;-51
2021/01/09 08:13:00;;;;;;;129.15;56.70;;;;;;;-0.04;88.19;100315.22;1857088;77;25656;-58
2021/01/09 08:15:29;;;;;;;133.32;58.00;;;;;;;-0.02;88.11;100313.12;1857254;77;25715;-52
2021/01/09 08:18:03;;;;;;;124.47;54.55;;;;;;;0.01;88.14;100319.30;1829422;77;28449;-58
2021/01/09 08:20:31;;;;;;;121.05;52.62;;;;;;;0.02;88.06;100318.77;1823419;78;25756;-55
2021/01/09 08:23:03;;;;;;;125.33;56.33;;;;;;;0.03;88.05;100311.09;1823455;78;25696;-55
2021/01/09 08:25:37;;;;;;;120.22;54.40;;;;;;;0.04;87.95;100314.04;1823257;78;25751;-54
2021/01/09 08:28:05;;;;;;;123.53;54.00;;;;;;;0.06;87.94;100322.05;1823435;78;25717;-57
2021/01/09 08:30:38;;;;;;;119.20;56.13;;;;;;;0.06;87.94;100320.72;1823464;78;25693;-55
2021/01/09 08:33:16;;;;;;;121.67;53.50;;;;;;;0.07;87.95;100315.70;1823143;78;26048;-50
2021/01/09 08:35:51;;;;;;;122.53;53.95;;;;;;;0.09;87.88;100328.23;1823379;78;25663;-55
2021/01/09 08:38:19;;;;;;;114.57;51.85;;;;;;;0.13;88.04;100324.56;1823452;78;25712;-54
2021/01/09 08:40:47;;;;;;;117.60;55.60;;;;;;;0.14;87.97;100329.66;1792129;78;25680;-54
2021/01/09 08:43:14;;;;;;;119.65;54.42;;;;;;;0.18;87.95;100332.64;1823407;78;26118;-53
2021/01/09 08:45:49;;;;;;;118.55;54.60;;;;;;;0.21;87.94;100331.37;1823197;78;25758;-53
2021/01/09 08:48:27;;;;;;;128.18;53.75;;;;;;;0.23;87.88;100336.72;1823329;78;25894;-54
2021/01/09 08:51:13;;;;;;;122.62;55.70;;;;;;;0.25;87.79;100335.16;1823413;78;26189;-55
2021/01/09 08:53:55;;;;;;;116.00;51.95;;;;;;;0.27;87.76;100341.03;1823371;78;25767;-52
2021/01/09 08:56:25;;;;;;;120.62;54.50;;;;;;;0.27;87.61;100345.83;1823229;78;26706;-54
2021/01/09 08:58:52;;;;;;;126.25;55.88;;;;;;;0.27;87.56;100345.83;1822762;78;25759;-54
2021/01/09 09:01:26;;;;;;;125.58;54.45;;;;;;;0.27;87.59;100346.36;1822323;77;25577;-49
2021/01/09 09:03:59;;;;;;;114.52;49.93;;;;;;;0.27;87.60;100348.48;1831236;76;25694;-49
2021/01/09 09:06:31;;;;;;;129.53;53.10;;;;;;;0.27;87.48;100344.50;1845213;77;25723;-57
2021/01/09 09:09:00;;;;;;;109.70;51.88;;;;;;;0.27;87.44;100347.69;1853736;76;25813;-46
2021/01/09 09:11:27;;;;;;;123.42;50.20;;;;;;;0.27;87.46;100343.70;1856275;77;25746;-48
2021/01/09 09:14:10;;;;;;;116.15;49.53;;;;;;;0.27;87.43;100343.70;1856165;77;25676;-52
2021/01/09 09:16:39;;;;;;;118.82;51.70;;;;;;;0.26;87.42;100337.58;1822713;78;25684;-55
2021/01/09 09:19:13;;;;;;;123.45;52.62;;;;;;;0.27;87.35;100338.37;1823024;78;25288;-55
2021/01/09 09:21:49;;;;;;;121.65;51.83;;;;;;;0.28;87.31;100341.34;1822776;78;26547;-54
2021/01/09 09:24:17;;;;;;;125.27;51.33;;;;;;;0.26;87.33;100339.44;1821601;78;25642;-55
2021/01/09 09:26:44;;;;;;;117.17;49.60;;;;;;;0.26;87.39;100338.91;1822664;78;25732;-54
2021/01/09 09:29:16;;;;;;;112.47;48.73;;;;;;;0.27;87.34;100339.70;1822790;78;25681;-55
2021/01/09 09:31:43;;;;;;;109.17;46.90;;;;;;;0.25;87.37;100339.14;1822399;78;25671;-54
2021/01/09 09:34:15;;;;;;;108.92;49.70;;;;;;;0.28;87.55;100344.00;1822743;78;25694;-50
2021/01/09 09:36:54;;;;;;;115.85;48.70;;;;;;;0.28;87.45;100340.80;1822754;78;25751;-54
2021/01/09 09:39:23;;;;;;;116.93;48.27;;;;;;;0.27;87.32;100342.37;1823057;78;25652;-54
2021/01/09 09:42:01;;;;;;;114.77;46.35;;;;;;;0.27;87.34;100336.52;1822736;78;26308;-54
2021/01/09 09:44:43;;;;;;;119.77;48.70;;;;;;;0.28;87.49;100343.46;1822819;78;25664;-55
2021/01/09 09:47:26;;;;;;;113.12;49.25;;;;;;;0.29;87.43;100337.61;1822742;78;25882;-56
2021/01/09 09:49:56;;;;;;;116.15;50.60;;;;;;;0.30;87.47;100324.59;1822055;78;25745;-54
2021/01/09 09:52:23;;;;;;;118.42;50.38;;;;;;;0.31;87.52;100334.20;1822426;78;25588;-52
2021/01/09 09:55:06;;;;;;;123.22;50.45;;;;;;;0.32;87.53;100331.31;1822699;78;25839;-55
2021/01/09 09:57:32;;;;;;;120.97;48.42;;;;;;;0.35;87.62;100328.68;1822851;78;25665;-49
2021/01/09 10:00:11;;;;;;;116.15;47.90;;;;;;;0.35;87.42;100327.34;1822691;78;26254;-50
2021/01/09 10:02:53;;;;;;;115.85;48.17;;;;;;;0.35;87.52;100328.68;1822467;78;26071;-51
2021/01/09 10:05:22;;;;;;;118.85;50.10;;;;;;;0.39;87.43;100331.66;1822789;78;26000;-49
2021/01/09 10:07:49;;;;;;;117.95;49.63;;;;;;;0.36;87.25;100321.79;1822851;78;25646;-53
2021/01/09 10:10:21;;;;;;;121.90;49.48;;;;;;;0.38;87.27;100326.08;1822677;78;25691;-54
2021/01/09 10:12:57;;;;;;;117.08;47.45;;;;;;;0.37;87.21;100326.58;1822560;78;26649;-49
2021/01/09 10:15:25;;;;;;;113.88;48.52;;;;;;;0.38;87.27;100321.55;1822788;78;25841;-53
2021/01/09 10:17:56;;;;;;;118.80;50.20;;;;;;;0.39;87.28;100324.48;1822118;78;25590;-53
2021/01/09 10:20:23;;;;;;;118.55;48.70;;;;;;;0.41;87.15;100324.24;1822341;78;25643;-48
2021/01/09 10:22:50;;;;;;;117.67;47.85;;;;;;;0.42;87.14;100321.34;1822948;78;26228;-50
2021/01/09 10:25:17;;;;;;;107.00;46.98;;;;;;;0.42;87.08;100324.00;1822794;78;26322;-49
2021/01/09 10:27:44;;;;;;;109.92;43.87;;;;;;;0.44;87.16;100320.57;1822716;78;25778;-47
2021/01/09 10:30:13;;;;;;;102.32;44.20;;;;;;;0.47;87.26;100316.11;1822830;78;25700;-51
2021/01/09 10:32:40;;;;;;;103.45;44.00;;;;;;;0.50;87.18;100313.50;1822917;78;26352;-50
2021/01/09 10:35:09;;;;;;;127.47;54.70;;;;;;;0.51;86.85;100321.25;1822802;78;25757;-53
2021/01/09 10:37:36;;;;;;;111.35;46.53;;;;;;;0.54;87.07;100322.61;1822927;78;25829;-52
2021/01/09 10:40:05;;;;;;;103.90;43.63;;;;;;;0.57;87.04;100324.79;1822646;78;25675;-51
2021/01/09 10:42:32;;;;;;;109.87;44.95;;;;;;;0.55;86.77;100323.70;1822631;78;25605;-44
2021/01/09 10:44:59;;;;;;;110.12;44.05;;;;;;;0.54;86.65;100319.94;1822714;78;25658;-51
2021/01/09 10:47:25;;;;;;;104.10;42.78;;;;;;;0.55;86.66;100326.36;1822725;78;25684;-53
2021/01/09 10:49:52;;;;;;;105.00;44.90;;;;;;;0.55;86.59;100324.23;1822813;78;26428;-45
2021/01/09 10:52:19;;;;;;;99.10;43.00;;;;;;;0.53;86.63;100324.47;1822648;78;25693;-47
2021/01/09 10:54:46;;;;;;;96.72;40.75;;;;;;;0.55;86.64;100325.03;1832653;77;25795;-54
2021/01/09 10:57:13;;;;;;;102.17;42.40;;;;;;;0.54;86.43;100327.92;1854648;77;25652;-49
2021/01/09 10:59:40;;;;;;;90.32;38.17;;;;;;;0.52;86.38;100320.18;1856387;77;25736;-48
2021/01/09 11:02:08;;;;;;;101.58;41.37;;;;;;;0.52;86.29;100322.84;1856219;77;25753;-53
2021/01/09 11:04:35;;;;;;;92.97;38.73;;;;;;;0.51;86.36;100328.41;1856120;77;25817;-47
2021/01/09 11:07:02;;;;;;;96.28;37.85;;;;;;;0.51;86.27;100327.91;1856301;77;25664;-47
2021/01/09 11:09:29;;;;;;;88.07;38.85;;;;;;;0.50;86.16;100326.27;1856271;77;25655;-45
2021/01/09 11:11:55;;;;;;;87.97;37.65;;;;;;;0.52;86.38;100324.17;1856458;77;25699;-52
2021/01/09 11:14:22;;;;;;;85.07;35.50;;;;;;;0.54;86.36;100326.59;1856359;77;25750;-43
2021/01/09 11:17:01;;;;;;;89.58;38.95;;;;;;;0.59;86.46;100328.55;1856266;77;25639;-45
2021/01/09 11:19:29;;;;;;;80.87;36.10;;;;;;;0.61;86.46;100326.44;1856555;77;26060;-45